メインページ
METAR-TAF:

METAR-TAF

空港 :

アルダビール空港

アルダビール, イラン

緯度: 38-19-35N, 経度: 048-25-28E, 海抜: 1315m

現時点の気象観測

当レポートは30分前の17:50(UTC)に作成
東/南東の風 4kt
気温 -4°C
湿度 93%
気圧 1027 hPa
視程10km以上
1,500メートル以下は雲なし、積乱雲なし

METAR: OITL 171750Z 11004KT CAVOK M04/M05 Q1027

時間: 21:50 (18:20 UTC)


TAF: 見つかりません

4,000以上の空港の気象観測と天気予報(METAR報とTAF報)

利用可能な観測所は地図上に黄色い丸と赤い丸で示す。

丸の上にカーソルを重ねると観測所名を参照できる。

次にクリックすると気象観測と天気予報を参照できる。

マップの切り替え:黒色「×」印の緑ボタンをクリックして拡大、「-」印の緑ボタンをクリックして縮小、緑色の三角印をクリックして隣りの地図に切り替え


METAR-TAF: